Terminal Aerodrome Forecast
Issued by NWS Topeka, KS

Home | Current Version | Previous Version | Text Only | Print | Product List | Glossary Off
Versions: 1 2 3 4 5 6 7 8 9 10 11 12 13 14 15 16 17 18 19 20 21 22 23 24 25 26

995
FTUS43 KTOP 270217 AAC
TAFTOP
TAF AMD
KTOP 270217Z 2702/2724 03006KT 6SM -SHRA SCT025 OVC060
      TEMPO 2704/2708 3SM SHRA BR SCT014 BKN025
     FM270800 02008KT 6SM -RA BR OVC009
      TEMPO 2710/2713 4SM RA SCT009 OVC013
     FM271600 36009KT P6SM OVC015
     FM272200 36008KT P6SM BKN035=

USA.gov is the U.S. government's official web portal to all federal, state and local government web resources and services.